Time;durP1;ratioP1;P1;durP2;ratioP2;P2;SDS_P1;SDS_P2;PMS_P1;PMS_P2;Temp;Humidity;BMP_temperature;BMP_pressure;BME280_temperature;BME280_humidity;BME280_pressure;Samples;Min_cycle;Max_cycle;Signal;HPM_P1;HPM_P2
2021/01/27 00:02:24;;;;;;;;;;;28.70;31.30;;;;;;5080093;28;19919;-70
2021/01/27 00:04:49;;;;;;;;;;;28.80;31.40;;;;;;5080408;28;19963;-69
2021/01/27 00:07:14;;;;;;;;;;;28.70;31.30;;;;;;5087578;28;19916;-70
2021/01/27 00:09:40;;;;;;;;;;;28.70;31.30;;;;;;5074347;28;19999;-69
2021/01/27 00:12:06;;;;;;;;;;;28.70;31.30;;;;;;5089848;28;19912;-70
2021/01/27 00:14:31;;;;;;;;;;;28.70;31.30;;;;;;5094005;28;19953;-69
2021/01/27 00:16:57;;;;;;;;;;;28.70;31.30;;;;;;5080978;28;19920;-69
2021/01/27 00:19:22;;;;;;;;;;;28.60;31.20;;;;;;5085643;28;19912;-70
2021/01/27 00:21:47;;;;;;;;;;;28.70;31.20;;;;;;5086186;28;19913;-70
2021/01/27 00:24:13;;;;;;;;;;;28.70;31.70;;;;;;5094209;28;19908;-69
2021/01/27 00:26:38;;;;;;;;;;;28.70;31.10;;;;;;5089158;28;19912;-69
2021/01/27 00:29:04;;;;;;;;;;;28.70;31.10;;;;;;5091982;28;19923;-69
2021/01/27 00:31:29;;;;;;;;;;;28.60;31.00;;;;;;5092051;28;19916;-69
2021/01/27 00:33:55;;;;;;;;;;;28.60;31.00;;;;;;5079434;28;19923;-70
2021/01/27 00:36:20;;;;;;;;;;;28.60;31.00;;;;;;5094006;28;19951;-70
2021/01/27 00:38:46;;;;;;;;;;;28.60;31.00;;;;;;5077997;28;20344;-70
2021/01/27 00:41:11;;;;;;;;;;;28.60;30.90;;;;;;5079561;28;19912;-69
2021/01/27 00:43:37;;;;;;;;;;;28.60;30.80;;;;;;5093885;28;19914;-70
2021/01/27 00:46:02;;;;;;;;;;;28.70;30.80;;;;;;5091977;28;19935;-70
2021/01/27 00:48:28;;;;;;;;;;;28.60;30.70;;;;;;5093540;28;20008;-70
2021/01/27 00:50:53;;;;;;;;;;;28.60;30.80;;;;;;5089384;28;19919;-70
2021/01/27 00:53:19;;;;;;;;;;;28.60;30.80;;;;;;5090255;28;19972;-70
2021/01/27 00:55:44;;;;;;;;;;;28.60;30.70;;;;;;5090089;28;19936;-70
2021/01/27 00:58:10;;;;;;;;;;;28.60;30.80;;;;;;5082289;28;20131;-70
2021/01/27 01:00:36;;;;;;;;;;;28.60;30.80;;;;;;5088668;28;20011;-70
2021/01/27 01:03:01;;;;;;;;;;;28.50;30.70;;;;;;5077629;28;20294;-70
2021/01/27 01:05:28;;;;;;;;;;;28.50;30.70;;;;;;5078787;28;19912;-70
2021/01/27 01:07:53;;;;;;;;;;;28.50;30.60;;;;;;5093402;28;20320;-70
2021/01/27 01:10:20;;;;;;;;;;;28.50;30.50;;;;;;5091540;28;19999;-70
2021/01/27 01:12:45;;;;;;;;;;;28.60;30.30;;;;;;5087939;28;19919;-70
2021/01/27 01:15:11;;;;;;;;;;;28.60;30.50;;;;;;5092939;28;19924;-70
2021/01/27 01:17:36;;;;;;;;;;;28.60;30.50;;;;;;5090717;28;19916;-70
2021/01/27 01:20:02;;;;;;;;;;;28.60;30.50;;;;;;5080888;28;20006;-70
2021/01/27 01:22:28;;;;;;;;;;;28.60;30.50;;;;;;5075618;28;19919;-70
2021/01/27 01:24:53;;;;;;;;;;;28.60;30.50;;;;;;5078292;28;19912;-70
2021/01/27 01:27:19;;;;;;;;;;;28.60;30.40;;;;;;5088450;28;19912;-70
2021/01/27 01:29:44;;;;;;;;;;;28.50;30.30;;;;;;5076961;28;19920;-70
2021/01/27 01:32:09;;;;;;;;;;;28.50;30.10;;;;;;5089557;28;19931;-69
2021/01/27 01:34:35;;;;;;;;;;;28.60;30.30;;;;;;5079833;28;20255;-70
2021/01/27 01:37:00;;;;;;;;;;;28.50;30.30;;;;;;5090088;28;19928;-70
2021/01/27 01:39:26;;;;;;;;;;;28.50;30.30;;;;;;5072802;28;19913;-70
2021/01/27 01:41:51;;;;;;;;;;;28.50;30.30;;;;;;5084600;28;19916;-70
2021/01/27 01:44:17;;;;;;;;;;;28.50;30.30;;;;;;5092888;28;19908;-70
2021/01/27 01:46:42;;;;;;;;;;;28.50;30.30;;;;;;5081646;28;20370;-70
2021/01/27 01:49:08;;;;;;;;;;;28.50;30.30;;;;;;5078613;28;19911;-70
2021/01/27 01:51:43;;;;;;;;;;;28.50;30.20;;;;;;5073685;28;19917;-70
2021/01/27 01:54:09;;;;;;;;;;;28.50;30.10;;;;;;5092864;28;20312;-70
2021/01/27 01:56:35;;;;;;;;;;;28.50;30.10;;;;;;5067468;28;19928;-70
2021/01/27 01:59:01;;;;;;;;;;;28.50;30.00;;;;;;5054379;28;19912;-69
2021/01/27 02:01:27;;;;;;;;;;;28.50;30.10;;;;;;5085815;28;19924;-69
2021/01/27 02:03:52;;;;;;;;;;;28.50;30.10;;;;;;5064501;28;19912;-69
2021/01/27 02:06:18;;;;;;;;;;;28.50;30.00;;;;;;5074702;28;19915;-70
2021/01/27 02:08:45;;;;;;;;;;;28.50;30.00;;;;;;5092433;28;19908;-70
2021/01/27 02:11:10;;;;;;;;;;;28.50;30.00;;;;;;5069630;28;19995;-70
2021/01/27 02:13:40;;;;;;;;;;;28.50;30.00;;;;;;5092459;28;19931;-70
2021/01/27 02:16:09;;;;;;;;;;;28.50;30.00;;;;;;5068578;28;19920;-70
2021/01/27 02:18:39;;;;;;;;;;;28.50;30.00;;;;;;5072475;28;19909;-70
2021/01/27 02:21:23;;;;;;;;;;;28.50;30.00;;;;;;5055586;28;19958;-70
2021/01/27 02:24:05;;;;;;;;;;;28.50;30.00;;;;;;5072421;28;19940;-69
2021/01/27 02:26:43;;;;;;;;;;;28.50;30.00;;;;;;5061748;28;19917;-70
2021/01/27 02:29:27;;;;;;;;;;;28.50;30.00;;;;;;5087900;28;20347;-69
2021/01/27 02:31:55;;;;;;;;;;;28.50;30.00;;;;;;5083950;28;20281;-69
2021/01/27 02:34:39;;;;;;;;;;;28.40;29.90;;;;;;5085087;28;19916;-70
2021/01/27 02:37:07;;;;;;;;;;;28.40;29.90;;;;;;5086433;28;19927;-70
2021/01/27 02:39:33;;;;;;;;;;;28.40;29.90;;;;;;5072702;28;19916;-70
2021/01/27 02:42:08;;;;;;;;;;;28.40;29.90;;;;;;5076904;28;20429;-70
2021/01/27 02:44:41;;;;;;;;;;;28.40;29.80;;;;;;5061992;28;19918;-69
2021/01/27 02:47:08;;;;;;;;;;;28.40;29.80;;;;;;5071609;28;20403;-70
2021/01/27 02:49:36;;;;;;;;;;;28.40;29.70;;;;;;5096121;28;19915;-70
2021/01/27 02:52:09;;;;;;;;;;;28.40;29.80;;;;;;5066514;28;19999;-70
2021/01/27 02:54:41;;;;;;;;;;;28.40;29.70;;;;;;5057911;28;19909;-70
2021/01/27 02:57:08;;;;;;;;;;;28.40;29.70;;;;;;5081402;28;19972;-70
2021/01/27 02:59:40;;;;;;;;;;;28.40;29.70;;;;;;5077756;28;19965;-70
2021/01/27 03:02:25;;;;;;;;;;;28.40;29.70;;;;;;5057607;28;19940;-70
2021/01/27 03:04:58;;;;;;;;;;;28.40;29.70;;;;;;5061705;28;19944;-70
2021/01/27 03:07:24;;;;;;;;;;;28.40;29.60;;;;;;5077798;28;20341;-70
2021/01/27 03:09:58;;;;;;;;;;;28.40;29.70;;;;;;5070447;28;19912;-70
2021/01/27 03:12:23;;;;;;;;;;;28.40;29.60;;;;;;5071505;28;19964;-70
2021/01/27 03:14:49;;;;;;;;;;;28.40;29.60;;;;;;5075091;28;19954;-70
2021/01/27 03:17:15;;;;;;;;;;;28.40;29.70;;;;;;5075337;28;19962;-70
2021/01/27 03:20:05;;;;;;;;;;;28.40;29.70;;;;;;5057195;28;19913;-70
2021/01/27 03:22:31;;;;;;;;;;;28.40;29.70;;;;;;5090886;28;19916;-69
2021/01/27 03:25:02;;;;;;;;;;;28.40;29.60;;;;;;5066386;28;19912;-69
2021/01/27 03:27:30;;;;;;;;;;;28.40;29.60;;;;;;5077813;28;19971;-69
2021/01/27 03:29:59;;;;;;;;;;;28.40;29.60;;;;;;5093340;28;19920;-69
2021/01/27 03:32:24;;;;;;;;;;;28.40;29.50;;;;;;5075305;28;19942;-69
2021/01/27 03:34:55;;;;;;;;;;;28.40;29.50;;;;;;5086672;28;19912;-69
2021/01/27 03:37:24;;;;;;;;;;;28.40;29.60;;;;;;5056958;28;19920;-70
2021/01/27 03:39:51;;;;;;;;;;;28.40;29.60;;;;;;5085417;28;19920;-70
2021/01/27 03:42:19;;;;;;;;;;;28.40;29.50;;;;;;5094509;28;20327;-69
2021/01/27 03:44:45;;;;;;;;;;;28.30;29.50;;;;;;5076709;28;19995;-69
2021/01/27 03:47:14;;;;;;;;;;;28.30;29.50;;;;;;5061748;28;20015;-69
2021/01/27 03:49:45;;;;;;;;;;;28.30;29.90;;;;;;5056712;28;19956;-70
2021/01/27 03:52:12;;;;;;;;;;;28.40;29.50;;;;;;5065654;28;19913;-70
2021/01/27 03:54:39;;;;;;;;;;;28.40;29.50;;;;;;5062302;28;20014;-70
2021/01/27 03:57:08;;;;;;;;;;;28.30;29.40;;;;;;5056685;28;19924;-70
2021/01/27 03:59:33;;;;;;;;;;;28.30;29.40;;;;;;5068553;28;19920;-69
2021/01/27 04:01:59;;;;;;;;;;;28.30;29.40;;;;;;5076226;28;19912;-69
2021/01/27 04:04:24;;;;;;;;;;;28.30;29.40;;;;;;5090252;28;19916;-69
2021/01/27 04:06:50;;;;;;;;;;;28.30;29.40;;;;;;5075395;28;20282;-70
2021/01/27 04:09:15;;;;;;;;;;;28.30;29.30;;;;;;5074192;28;19999;-70
2021/01/27 04:11:41;;;;;;;;;;;28.30;29.30;;;;;;5084717;28;20002;-70
2021/01/27 04:14:06;;;;;;;;;;;28.30;29.30;;;;;;5094199;28;20449;-70
2021/01/27 04:16:32;;;;;;;;;;;28.30;29.20;;;;;;5084625;28;19927;-70
2021/01/27 04:18:58;;;;;;;;;;;28.30;29.30;;;;;;5087708;28;20370;-69
2021/01/27 04:21:23;;;;;;;;;;;28.30;29.30;;;;;;5085488;28;19916;-70
2021/01/27 04:23:49;;;;;;;;;;;28.30;29.20;;;;;;5074789;28;19919;-70
2021/01/27 04:26:14;;;;;;;;;;;28.30;29.20;;;;;;5079592;28;19916;-70
2021/01/27 04:28:40;;;;;;;;;;;28.30;29.20;;;;;;5073990;28;19912;-70
2021/01/27 04:31:05;;;;;;;;;;;28.30;29.30;;;;;;5083357;28;20351;-70
2021/01/27 04:33:31;;;;;;;;;;;28.20;29.20;;;;;;5093655;28;20073;-70
2021/01/27 04:35:56;;;;;;;;;;;28.20;29.20;;;;;;5080971;28;19943;-70
2021/01/27 04:38:22;;;;;;;;;;;28.20;29.30;;;;;;5073294;28;19909;-69
2021/01/27 04:40:47;;;;;;;;;;;28.20;29.20;;;;;;5076728;28;20358;-70
2021/01/27 04:43:12;;;;;;;;;;;28.20;29.20;;;;;;5057473;28;19912;-69
2021/01/27 04:45:38;;;;;;;;;;;28.20;29.20;;;;;;5089720;28;20006;-69
2021/01/27 04:48:06;;;;;;;;;;;28.20;29.10;;;;;;5073316;28;19915;-70
2021/01/27 04:50:32;;;;;;;;;;;28.20;29.10;;;;;;5055352;28;19909;-70
2021/01/27 04:52:57;;;;;;;;;;;28.20;29.10;;;;;;5083966;28;19957;-70
2021/01/27 04:55:29;;;;;;;;;;;28.20;29.00;;;;;;5093327;28;19931;-70
2021/01/27 04:57:55;;;;;;;;;;;28.30;29.20;;;;;;5065016;28;19912;-70
2021/01/27 05:00:39;;;;;;;;;;;28.20;29.10;;;;;;5088391;28;19974;-69
2021/01/27 05:03:04;;;;;;;;;;;28.20;29.10;;;;;;5072569;28;20378;-70
2021/01/27 05:05:30;;;;;;;;;;;28.20;29.10;;;;;;5088408;28;19958;-69
2021/01/27 05:08:14;;;;;;;;;;;28.20;29.10;;;;;;5075123;28;19962;-69
2021/01/27 05:10:47;;;;;;;;;;;28.20;29.10;;;;;;5082565;28;19912;-69
2021/01/27 05:13:15;;;;;;;;;;;28.20;29.10;;;;;;5093413;28;20000;-69
2021/01/27 05:15:41;;;;;;;;;;;28.20;29.10;;;;;;5090465;28;19928;-69
2021/01/27 05:18:06;;;;;;;;;;;28.20;29.10;;;;;;5073080;28;20239;-69
2021/01/27 05:20:32;;;;;;;;;;;28.20;29.10;;;;;;5054922;28;19908;-69
2021/01/27 05:22:57;;;;;;;;;;;28.20;29.10;;;;;;5084200;28;19912;-69
2021/01/27 05:25:23;;;;;;;;;;;28.20;29.00;;;;;;5092873;28;19908;-69
2021/01/27 05:27:49;;;;;;;;;;;28.20;29.00;;;;;;5074261;28;19958;-69
2021/01/27 05:30:25;;;;;;;;;;;28.20;29.00;;;;;;5069055;28;19920;-69
2021/01/27 05:32:55;;;;;;;;;;;28.20;29.00;;;;;;5055231;28;19999;-69
2021/01/27 05:35:30;;;;;;;;;;;28.20;29.00;;;;;;5076789;28;20243;-69
2021/01/27 05:37:56;;;;;;;;;;;28.20;29.00;;;;;;5072847;28;19909;-69
2021/01/27 05:40:24;;;;;;;;;;;28.20;29.00;;;;;;5072560;28;19967;-69
2021/01/27 05:42:50;;;;;;;;;;;28.20;29.00;;;;;;5072830;28;19916;-69
2021/01/27 05:45:27;;;;;;;;;;;28.20;29.00;;;;;;5072559;28;19935;-69
2021/01/27 05:47:53;;;;;;;;;;;28.20;29.00;;;;;;5072941;28;19912;-69
2021/01/27 05:50:22;;;;;;;;;;;28.20;29.00;;;;;;5081442;28;19950;-69
2021/01/27 05:52:47;;;;;;;;;;;28.20;29.00;;;;;;5084564;28;19975;-69
2021/01/27 05:55:13;;;;;;;;;;;28.10;28.90;;;;;;5076035;28;19916;-69
2021/01/27 05:57:39;;;;;;;;;;;28.20;29.00;;;;;;5092641;28;19908;-69
2021/01/27 06:00:05;;;;;;;;;;;28.10;28.90;;;;;;5074270;28;20357;-69
2021/01/27 06:02:36;;;;;;;;;;;28.10;28.80;;;;;;5082538;28;19919;-69
2021/01/27 06:05:01;;;;;;;;;;;28.10;28.80;;;;;;5060184;28;19915;-69
2021/01/27 06:07:27;;;;;;;;;;;28.20;28.80;;;;;;5074800;28;19912;-69
2021/01/27 06:09:53;;;;;;;;;;;28.20;28.90;;;;;;5091942;28;19946;-69
2021/01/27 06:12:18;;;;;;;;;;;28.20;28.90;;;;;;5082152;28;20048;-69
2021/01/27 06:14:44;;;;;;;;;;;28.20;28.80;;;;;;5077624;28;19920;-69
2021/01/27 06:17:23;;;;;;;;;;;28.20;28.80;;;;;;5058570;28;19966;-69
2021/01/27 06:20:08;;;;;;;;;;;28.10;28.80;;;;;;5082085;28;19912;-69
2021/01/27 06:22:36;;;;;;;;;;;28.10;28.80;;;;;;5090865;28;19938;-69
2021/01/27 06:25:05;;;;;;;;;;;28.10;28.80;;;;;;5077434;28;19927;-69
2021/01/27 06:27:51;;;;;;;;;;;28.10;28.80;;;;;;5096517;28;19912;-69
2021/01/27 06:30:30;;;;;;;;;;;28.10;28.80;;;;;;5076605;28;20015;-69
2021/01/27 06:33:11;;;;;;;;;;;28.10;28.80;;;;;;5066647;28;19912;-70
2021/01/27 06:35:37;;;;;;;;;;;28.10;28.80;;;;;;5096064;28;19916;-70
2021/01/27 06:38:08;;;;;;;;;;;28.10;28.80;;;;;;5078189;28;19919;-70
2021/01/27 06:40:48;;;;;;;;;;;28.10;28.80;;;;;;5075415;28;20413;-70
2021/01/27 06:43:26;;;;;;;;;;;28.10;28.80;;;;;;5057890;28;19992;-69
2021/01/27 06:45:54;;;;;;;;;;;28.10;28.80;;;;;;5075864;28;19920;-70
2021/01/27 06:48:29;;;;;;;;;;;28.10;28.80;;;;;;5094903;28;20370;-70
2021/01/27 06:50:59;;;;;;;;;;;28.10;28.80;;;;;;5077605;28;20320;-70
2021/01/27 06:53:33;;;;;;;;;;;28.10;28.80;;;;;;5062991;28;19912;-70
2021/01/27 06:55:59;;;;;;;;;;;28.10;28.80;;;;;;5087382;28;20405;-69
2021/01/27 06:58:24;;;;;;;;;;;28.10;28.70;;;;;;5075671;28;19954;-69
2021/01/27 07:00:56;;;;;;;;;;;28.10;28.70;;;;;;5075632;28;19908;-69
2021/01/27 07:03:31;;;;;;;;;;;28.10;28.70;;;;;;5067959;28;20002;-70
2021/01/27 07:06:02;;;;;;;;;;;28.10;28.70;;;;;;5085535;28;19912;-70
2021/01/27 07:08:34;;;;;;;;;;;28.10;28.70;;;;;;5092354;28;19927;-70
2021/01/27 07:11:04;;;;;;;;;;;28.00;28.70;;;;;;5077346;28;20433;-70
2021/01/27 07:13:48;;;;;;;;;;;28.10;28.70;;;;;;5073817;28;20358;-70
2021/01/27 07:16:14;;;;;;;;;;;28.10;28.70;;;;;;5089509;28;19924;-69
2021/01/27 07:18:54;;;;;;;;;;;28.10;28.80;;;;;;5074907;28;19915;-70
2021/01/27 07:21:20;;;;;;;;;;;28.00;29.10;;;;;;5082410;28;19934;-69
2021/01/27 07:24:06;;;;;;;;;;;28.00;28.70;;;;;;5093910;28;20354;-69
2021/01/27 07:26:31;;;;;;;;;;;28.10;28.70;;;;;;5082201;28;19922;-69
2021/01/27 07:28:57;;;;;;;;;;;28.00;28.70;;;;;;5078868;28;19999;-69
2021/01/27 07:31:22;;;;;;;;;;;28.10;28.90;;;;;;5086790;28;19927;-69
2021/01/27 07:33:54;;;;;;;;;;;28.10;29.20;;;;;;5076822;28;20422;-69
2021/01/27 07:36:22;;;;;;;;;;;28.10;29.20;;;;;;5086597;28;19928;-68
2021/01/27 07:38:47;;;;;;;;;;;28.20;29.50;;;;;;5088644;28;19920;-45
2021/01/27 07:41:18;;;;;;;;;;;28.10;29.40;;;;;;5092547;28;19912;-50
2021/01/27 07:43:48;;;;;;;;;;;27.10;20.60;;;;;;5082222;28;19913;-64
2021/01/27 07:46:14;;;;;;;;;;;26.10;21.50;;;;;;5076077;28;19947;-61
2021/01/27 07:49:05;;;;;;;;;;;25.90;23.30;;;;;;5094646;28;19916;-62
2021/01/27 07:51:34;;;;;;;;;;;26.10;24.70;;;;;;5084264;28;19923;-63
2021/01/27 07:53:59;;;;;;;;;;;26.60;25.10;;;;;;5076416;28;19919;-62
2021/01/27 07:56:27;;;;;;;;;;;27.00;25.00;;;;;;5084702;28;19921;-46
2021/01/27 07:59:09;;;;;;;;;;;27.40;25.10;;;;;;5062647;28;19962;-49
2021/01/27 08:01:42;;;;;;;;;;;27.70;25.00;;;;;;5066433;28;20015;-51
2021/01/27 08:04:08;;;;;;;;;;;27.90;25.00;;;;;;5082743;28;19912;-52
2021/01/27 08:06:59;;;;;;;;;;;28.10;25.10;;;;;;5085191;28;20285;-49
2021/01/27 08:09:35;;;;;;;;;;;28.20;25.00;;;;;;5089066;28;19935;-58
2021/01/27 08:12:27;;;;;;;;;;;28.40;25.20;;;;;;5092623;28;20025;-58
2021/01/27 08:14:57;;;;;;;;;;;28.50;25.40;;;;;;5055219;28;19918;-60
2021/01/27 08:17:41;;;;;;;;;;;28.60;25.50;;;;;;5077409;28;20290;-63
2021/01/27 08:20:18;;;;;;;;;;;28.60;25.60;;;;;;5073726;28;19919;-66
2021/01/27 08:22:47;;;;;;;;;;;28.60;25.80;;;;;;5091260;28;20366;-55
2021/01/27 08:25:18;;;;;;;;;;;28.70;26.00;;;;;;5074100;28;19912;-57
2021/01/27 08:27:43;;;;;;;;;;;28.70;26.10;;;;;;5074495;28;20358;-52
2021/01/27 08:30:13;;;;;;;;;;;28.70;26.00;;;;;;5093671;28;20010;-53
2021/01/27 08:32:43;;;;;;;;;;;28.80;26.10;;;;;;5092095;28;19939;-47
2021/01/27 08:35:09;;;;;;;;;;;28.90;26.50;;;;;;5079818;28;19913;-50
2021/01/27 08:37:35;;;;;;;;;;;28.90;26.10;;;;;;5085110;28;20320;-54
2021/01/27 08:40:21;;;;;;;;;;;29.00;26.20;;;;;;5073013;28;19912;-50
2021/01/27 08:42:53;;;;;;;;;;;29.00;26.20;;;;;;5073056;28;20370;-50
2021/01/27 08:45:21;;;;;;;;;;;29.00;26.20;;;;;;5055682;28;19908;-50
2021/01/27 08:47:46;;;;;;;;;;;29.00;26.20;;;;;;5073590;28;19958;-58
2021/01/27 08:50:31;;;;;;;;;;;29.10;26.90;;;;;;5073068;28;19908;-62
2021/01/27 08:53:03;;;;;;;;;;;29.10;26.40;;;;;;5073328;28;19999;-62
2021/01/27 08:55:34;;;;;;;;;;;29.00;26.60;;;;;;5055494;28;19956;-52
2021/01/27 08:58:18;;;;;;;;;;;29.10;26.80;;;;;;5093134;28;19908;-61
2021/01/27 09:00:43;;;;;;;;;;;29.10;26.80;;;;;;5086730;28;20046;-49
2021/01/27 09:03:09;;;;;;;;;;;29.10;26.80;;;;;;5073198;28;19912;-59
2021/01/27 09:05:36;;;;;;;;;;;29.10;26.90;;;;;;5084103;28;19912;-70
2021/01/27 09:08:10;;;;;;;;;;;29.10;26.90;;;;;;5092042;28;19946;-51
2021/01/27 09:10:38;;;;;;;;;;;29.20;27.00;;;;;;5092905;28;20305;-64
2021/01/27 09:13:20;;;;;;;;;;;29.20;27.10;;;;;;5093225;28;19931;-50
2021/01/27 09:15:50;;;;;;;;;;;29.20;27.10;;;;;;5077154;28;19932;-52
2021/01/27 09:18:15;;;;;;;;;;;29.20;27.20;;;;;;5055765;28;19948;-53
2021/01/27 09:20:41;;;;;;;;;;;29.20;27.30;;;;;;5074909;28;19997;-50
2021/01/27 09:23:07;;;;;;;;;;;29.20;27.30;;;;;;5091320;28;20313;-61
2021/01/27 09:25:33;;;;;;;;;;;29.20;27.40;;;;;;5080969;28;19920;-60
2021/01/27 09:28:05;;;;;;;;;;;29.20;27.50;;;;;;5072777;28;19913;-62
2021/01/27 09:30:31;;;;;;;;;;;29.20;27.60;;;;;;5073227;28;19925;-59
2021/01/27 09:33:09;;;;;;;;;;;29.20;27.60;;;;;;5093134;28;19961;-63
2021/01/27 09:35:35;;;;;;;;;;;29.20;27.60;;;;;;5087988;28;19923;-62
2021/01/27 09:38:00;;;;;;;;;;;29.20;27.60;;;;;;5074964;28;20278;-62
2021/01/27 09:40:27;;;;;;;;;;;29.20;27.70;;;;;;5072473;28;19912;-63
2021/01/27 09:42:54;;;;;;;;;;;29.10;27.80;;;;;;5074780;28;19916;-60
2021/01/27 09:45:23;;;;;;;;;;;29.00;27.90;;;;;;5092796;28;19951;-67
2021/01/27 09:47:50;;;;;;;;;;;29.00;28.00;;;;;;5054405;28;20267;-73
2021/01/27 09:50:16;;;;;;;;;;;29.10;28.10;;;;;;5090697;28;19908;-64
2021/01/27 09:52:42;;;;;;;;;;;29.10;28.00;;;;;;5073315;28;19927;-65
2021/01/27 09:55:11;;;;;;;;;;;29.10;28.10;;;;;;5056621;28;19918;-56
2021/01/27 09:57:37;;;;;;;;;;;29.00;28.20;;;;;;5072158;28;19916;-55
2021/01/27 10:00:04;;;;;;;;;;;29.00;28.30;;;;;;5054203;28;20181;-48
2021/01/27 10:02:32;;;;;;;;;;;28.90;28.20;;;;;;5073799;28;19908;-49
2021/01/27 10:04:57;;;;;;;;;;;29.00;28.30;;;;;;5077965;28;20010;-54
2021/01/27 10:07:30;;;;;;;;;;;29.10;28.20;;;;;;5078972;28;20384;-60
2021/01/27 10:09:57;;;;;;;;;;;29.10;28.20;;;;;;5092661;28;19920;-50
2021/01/27 10:12:26;;;;;;;;;;;29.20;28.30;;;;;;5074463;28;20004;-60
2021/01/27 10:14:58;;;;;;;;;;;29.20;28.30;;;;;;5092559;28;19916;-50
2021/01/27 10:17:28;;;;;;;;;;;29.10;28.40;;;;;;5057257;28;20389;-68
2021/01/27 10:20:01;;;;;;;;;;;29.10;28.40;;;;;;5059343;28;19912;-65
2021/01/27 10:22:27;;;;;;;;;;;29.20;28.40;;;;;;5076173;28;20307;-74
2021/01/27 10:24:56;;;;;;;;;;;29.20;28.40;;;;;;5072260;28;19920;-59
2021/01/27 10:27:37;;;;;;;;;;;29.20;28.30;;;;;;5054333;28;19917;-56
2021/01/27 10:30:15;;;;;;;;;;;29.20;28.40;;;;;;5071972;28;19920;-70
2021/01/27 10:32:43;;;;;;;;;;;29.20;28.50;;;;;;5092099;28;19962;-63
2021/01/27 10:35:27;;;;;;;;;;;29.30;28.50;;;;;;5090824;28;19943;-76
2021/01/27 10:38:04;;;;;;;;;;;29.20;28.50;;;;;;5085199;28;20370;-68
2021/01/27 10:40:33;;;;;;;;;;;29.10;28.60;;;;;;5091924;28;19912;-70
2021/01/27 10:43:10;;;;;;;;;;;29.10;28.60;;;;;;5077167;28;19909;-52
2021/01/27 10:45:39;;;;;;;;;;;29.00;28.60;;;;;;5080948;28;19917;-60
2021/01/27 10:48:08;;;;;;;;;;;29.00;28.60;;;;;;5071394;28;20432;-57
2021/01/27 10:50:33;;;;;;;;;;;29.10;28.60;;;;;;5091235;28;20076;-55
2021/01/27 10:52:59;;;;;;;;;;;29.20;28.60;;;;;;5073074;28;19981;-54
2021/01/27 10:55:29;;;;;;;;;;;29.20;28.60;;;;;;5071795;28;19916;-54
2021/01/27 10:58:04;;;;;;;;;;;29.20;28.60;;;;;;5087147;28;20015;-60
2021/01/27 11:00:30;;;;;;;;;;;29.30;28.70;;;;;;5072365;28;19958;-51
2021/01/27 11:02:55;;;;;;;;;;;29.20;28.60;;;;;;5074523;28;19912;-49
2021/01/27 11:05:21;;;;;;;;;;;29.30;28.70;;;;;;5075289;28;19920;-56
2021/01/27 11:07:46;;;;;;;;;;;29.30;28.70;;;;;;5092441;28;19912;-54
2021/01/27 11:10:12;;;;;;;;;;;29.30;28.70;;;;;;5057803;28;19934;-61
2021/01/27 11:12:37;;;;;;;;;;;29.30;28.70;;;;;;5077122;28;19943;-65
2021/01/27 11:15:03;;;;;;;;;;;29.30;28.80;;;;;;5095313;28;19915;-65
2021/01/27 11:17:29;;;;;;;;;;;29.30;28.70;;;;;;5086701;28;20046;-61
2021/01/27 11:19:54;;;;;;;;;;;29.30;28.80;;;;;;5095273;28;20369;-62
2021/01/27 11:22:19;;;;;;;;;;;29.30;28.70;;;;;;5091436;28;19917;-50
2021/01/27 11:24:45;;;;;;;;;;;29.30;28.90;;;;;;5075064;28;19916;-52
2021/01/27 11:27:10;;;;;;;;;;;29.30;28.90;;;;;;5075122;28;20356;-50
2021/01/27 11:29:36;;;;;;;;;;;29.30;28.90;;;;;;5094016;28;19920;-48
2021/01/27 11:32:01;;;;;;;;;;;29.30;28.90;;;;;;5094973;28;20285;-56
2021/01/27 11:34:27;;;;;;;;;;;29.30;28.80;;;;;;5086123;28;19912;-58
2021/01/27 11:36:52;;;;;;;;;;;29.30;29.30;;;;;;5075883;28;19924;-74
2021/01/27 11:39:18;;;;;;;;;;;29.30;28.90;;;;;;5077402;28;20006;-56
2021/01/27 11:41:43;;;;;;;;;;;29.30;28.90;;;;;;5094964;28;20358;-53
2021/01/27 11:44:09;;;;;;;;;;;29.30;28.90;;;;;;5094802;28;20003;-51
2021/01/27 11:46:35;;;;;;;;;;;29.30;28.90;;;;;;5094055;28;19912;-56
2021/01/27 11:49:00;;;;;;;;;;;29.30;28.90;;;;;;5081880;28;19912;-52
2021/01/27 11:51:26;;;;;;;;;;;29.30;29.00;;;;;;5082590;28;20313;-61
2021/01/27 11:53:51;;;;;;;;;;;29.30;28.90;;;;;;5094482;28;19955;-64
2021/01/27 11:56:17;;;;;;;;;;;29.40;28.90;;;;;;5094505;28;19916;-61
2021/01/27 11:58:42;;;;;;;;;;;29.40;28.90;;;;;;5094650;28;19908;-62
2021/01/27 12:01:08;;;;;;;;;;;29.40;28.90;;;;;;5088784;28;19912;-64
2021/01/27 12:03:33;;;;;;;;;;;29.40;28.90;;;;;;5074901;28;19923;-61
2021/01/27 12:05:59;;;;;;;;;;;29.40;28.90;;;;;;5081144;28;19954;-62
2021/01/27 12:08:24;;;;;;;;;;;29.40;29.00;;;;;;5094043;28;19912;-63
2021/01/27 12:10:50;;;;;;;;;;;29.40;29.00;;;;;;5081235;28;19993;-48
2021/01/27 12:13:16;;;;;;;;;;;29.30;29.00;;;;;;5073791;28;20278;-54
2021/01/27 12:15:45;;;;;;;;;;;29.30;28.90;;;;;;5087196;28;20374;-71
2021/01/27 12:18:13;;;;;;;;;;;29.30;29.10;;;;;;5094438;28;19912;-68
2021/01/27 12:20:39;;;;;;;;;;;29.30;29.10;;;;;;5093689;28;19923;-68
2021/01/27 12:23:04;;;;;;;;;;;29.20;29.30;;;;;;5094131;28;19912;-68
2021/01/27 12:25:30;;;;;;;;;;;29.10;29.20;;;;;;5093085;28;19915;-55
2021/01/27 12:27:55;;;;;;;;;;;29.10;29.50;;;;;;5073921;28;19913;-52
2021/01/27 12:30:21;;;;;;;;;;;29.00;29.70;;;;;;5081624;28;20402;-70
2021/01/27 12:32:47;;;;;;;;;;;29.10;29.80;;;;;;5082361;28;19912;-67
2021/01/27 12:35:13;;;;;;;;;;;29.00;30.00;;;;;;5073535;28;19931;-50
2021/01/27 12:37:38;;;;;;;;;;;28.90;30.10;;;;;;5074450;28;19913;-51
2021/01/27 12:40:07;;;;;;;;;;;28.90;30.00;;;;;;5073543;28;19938;-64
2021/01/27 12:42:33;;;;;;;;;;;28.90;30.00;;;;;;5078620;28;19962;-66
2021/01/27 12:44:58;;;;;;;;;;;29.00;30.00;;;;;;5073410;28;19951;-60
2021/01/27 12:47:24;;;;;;;;;;;29.00;30.00;;;;;;5073586;28;20334;-52
2021/01/27 12:49:49;;;;;;;;;;;29.10;30.10;;;;;;5073312;28;20317;-66
2021/01/27 12:52:15;;;;;;;;;;;29.00;30.10;;;;;;5073784;28;19923;-47
2021/01/27 12:54:41;;;;;;;;;;;29.10;30.20;;;;;;5073288;28;19908;-47
2021/01/27 12:57:06;;;;;;;;;;;29.10;30.20;;;;;;5076883;28;19966;-61
2021/01/27 12:59:32;;;;;;;;;;;29.10;30.20;;;;;;5073293;28;19920;-53
2021/01/27 13:01:57;;;;;;;;;;;29.00;30.10;;;;;;5077563;28;19919;-58
2021/01/27 13:04:23;;;;;;;;;;;29.10;30.30;;;;;;5091596;28;20045;-63
2021/01/27 13:06:48;;;;;;;;;;;29.00;30.40;;;;;;5086073;28;19912;-63
2021/01/27 13:09:13;;;;;;;;;;;29.00;30.20;;;;;;5093336;28;19962;-61
2021/01/27 13:11:39;;;;;;;;;;;29.00;30.40;;;;;;5078913;28;20299;-56
2021/01/27 13:14:04;;;;;;;;;;;29.00;30.30;;;;;;5092942;28;20007;-56
2021/01/27 13:16:30;;;;;;;;;;;29.00;30.40;;;;;;5091552;28;19931;-50
2021/01/27 13:18:56;;;;;;;;;;;29.00;30.30;;;;;;5093068;28;19989;-48
2021/01/27 13:21:22;;;;;;;;;;;29.00;30.30;;;;;;5091479;28;19916;-64
2021/01/27 13:23:50;;;;;;;;;;;29.00;30.40;;;;;;5081643;28;19923;-66
2021/01/27 13:26:16;;;;;;;;;;;29.10;30.50;;;;;;5093272;28;19912;-62
2021/01/27 13:28:41;;;;;;;;;;;29.00;30.50;;;;;;5093224;28;19919;-64
2021/01/27 13:31:07;;;;;;;;;;;29.00;30.50;;;;;;5090131;28;20358;-58
2021/01/27 13:33:32;;;;;;;;;;;29.00;30.40;;;;;;5072950;28;19912;-70
2021/01/27 13:35:58;;;;;;;;;;;29.00;30.40;;;;;;5076716;28;19920;-65
2021/01/27 13:38:23;;;;;;;;;;;28.90;30.60;;;;;;5072689;28;19909;-65
2021/01/27 13:40:49;;;;;;;;;;;28.90;30.50;;;;;;5075925;28;20417;-48
2021/01/27 13:43:14;;;;;;;;;;;28.80;30.50;;;;;;5088410;28;19912;-50
2021/01/27 13:45:40;;;;;;;;;;;28.80;30.60;;;;;;5072516;28;19934;-63
2021/01/27 13:48:06;;;;;;;;;;;28.90;30.70;;;;;;5073088;28;19919;-73
2021/01/27 13:50:31;;;;;;;;;;;28.90;30.20;;;;;;5087360;28;19965;-50
2021/01/27 13:52:57;;;;;;;;;;;28.90;30.30;;;;;;5092759;28;19908;-59
2021/01/27 13:55:22;;;;;;;;;;;29.00;30.50;;;;;;5092377;28;20388;-60
2021/01/27 13:57:48;;;;;;;;;;;29.00;30.40;;;;;;5092399;28;19908;-56
2021/01/27 14:00:14;;;;;;;;;;;28.90;30.40;;;;;;5092758;28;20313;-48
2021/01/27 14:02:40;;;;;;;;;;;28.90;30.30;;;;;;5081553;28;19935;-49
2021/01/27 14:05:06;;;;;;;;;;;29.00;30.60;;;;;;5086933;28;20385;-48
2021/01/27 14:07:31;;;;;;;;;;;28.90;30.60;;;;;;5077932;28;19920;-49
2021/01/27 14:09:57;;;;;;;;;;;29.00;30.40;;;;;;5072278;28;19958;-52
2021/01/27 14:12:22;;;;;;;;;;;29.00;30.70;;;;;;5072099;28;19912;-73
2021/01/27 14:14:48;;;;;;;;;;;29.00;30.50;;;;;;5081409;28;19974;-65
2021/01/27 14:17:15;;;;;;;;;;;29.00;30.70;;;;;;5078185;28;20275;-67
2021/01/27 14:19:40;;;;;;;;;;;29.00;30.70;;;;;;5084348;28;19912;-48
2021/01/27 14:22:06;;;;;;;;;;;29.00;30.80;;;;;;5090799;28;19969;-69
2021/01/27 14:24:31;;;;;;;;;;;29.10;30.80;;;;;;5092402;28;19923;-52